sensor_id;sensor_type;location;lat;lon;timestamp;temperature;humidity
47168;DHT22;32931;47.778;17.806;2022-12-26T00:01:43;9.30;99.90
47168;DHT22;32931;47.778;17.806;2022-12-26T00:04:10;9.40;99.90
47168;DHT22;32931;47.778;17.806;2022-12-26T00:06:36;9.40;99.90
47168;DHT22;32931;47.778;17.806;2022-12-26T00:09:05;9.40;99.90
47168;DHT22;32931;47.778;17.806;2022-12-26T00:11:32;9.40;99.90
47168;DHT22;32931;47.778;17.806;2022-12-26T00:14:22;9.40;99.90
47168;DHT22;32931;47.778;17.806;2022-12-26T00:16:47;9.40;99.90
47168;DHT22;32931;47.778;17.806;2022-12-26T00:19:13;9.40;99.90
47168;DHT22;32931;47.778;17.806;2022-12-26T00:21:39;9.40;99.90
47168;DHT22;32931;47.778;17.806;2022-12-26T00:24:06;9.40;99.90
47168;DHT22;32931;47.778;17.806;2022-12-26T00:26:33;9.40;99.90
47168;DHT22;32931;47.778;17.806;2022-12-26T00:29:01;9.40;99.90
47168;DHT22;32931;47.778;17.806;2022-12-26T00:31:30;9.40;99.90
47168;DHT22;32931;47.778;17.806;2022-12-26T00:33:58;9.40;99.90
47168;DHT22;32931;47.778;17.806;2022-12-26T00:36:27;9.40;99.90
47168;DHT22;32931;47.778;17.806;2022-12-26T00:38:55;9.40;99.90
47168;DHT22;32931;47.778;17.806;2022-12-26T00:41:22;9.40;99.90
47168;DHT22;32931;47.778;17.806;2022-12-26T00:43:48;9.40;99.90
47168;DHT22;32931;47.778;17.806;2022-12-26T00:46:16;9.40;99.90
47168;DHT22;32931;47.778;17.806;2022-12-26T00:48:42;9.40;99.90
47168;DHT22;32931;47.778;17.806;2022-12-26T00:51:09;9.40;99.90
47168;DHT22;32931;47.778;17.806;2022-12-26T00:53:35;9.40;99.90
47168;DHT22;32931;47.778;17.806;2022-12-26T00:56:02;9.40;99.90
47168;DHT22;32931;47.778;17.806;2022-12-26T00:58:29;9.40;99.90
47168;DHT22;32931;47.778;17.806;2022-12-26T01:00:55;9.40;99.90
47168;DHT22;32931;47.778;17.806;2022-12-26T01:03:29;9.30;99.90
47168;DHT22;32931;47.778;17.806;2022-12-26T01:05:55;9.30;99.90
47168;DHT22;32931;47.778;17.806;2022-12-26T01:08:21;9.30;99.90
47168;DHT22;32931;47.778;17.806;2022-12-26T01:10:48;9.30;99.90
47168;DHT22;32931;47.778;17.806;2022-12-26T01:13:14;9.30;99.90
47168;DHT22;32931;47.778;17.806;2022-12-26T01:15:47;9.20;99.90
47168;DHT22;32931;47.778;17.806;2022-12-26T01:18:14;9.20;99.90
47168;DHT22;32931;47.778;17.806;2022-12-26T01:20:40;9.20;99.90
47168;DHT22;32931;47.778;17.806;2022-12-26T01:23:06;9.10;99.90
47168;DHT22;32931;47.778;17.806;2022-12-26T01:25:33;9.10;99.90
47168;DHT22;32931;47.778;17.806;2022-12-26T01:27:59;9.10;99.90
47168;DHT22;32931;47.778;17.806;2022-12-26T01:30:25;9.10;99.90
47168;DHT22;32931;47.778;17.806;2022-12-26T01:32:51;9.10;99.90
47168;DHT22;32931;47.778;17.806;2022-12-26T01:35:17;9.10;99.90
47168;DHT22;32931;47.778;17.806;2022-12-26T01:37:43;9.10;99.90
47168;DHT22;32931;47.778;17.806;2022-12-26T01:40:11;9.00;99.90
47168;DHT22;32931;47.778;17.806;2022-12-26T01:42:39;9.00;99.90
47168;DHT22;32931;47.778;17.806;2022-12-26T01:50:04;9.00;99.90
47168;DHT22;32931;47.778;17.806;2022-12-26T01:52:35;8.90;99.90
47168;DHT22;32931;47.778;17.806;2022-12-26T01:55:04;9.00;99.90
47168;DHT22;32931;47.778;17.806;2022-12-26T01:57:39;8.90;99.90
47168;DHT22;32931;47.778;17.806;2022-12-26T02:00:07;8.90;99.90
47168;DHT22;32931;47.778;17.806;2022-12-26T02:02:34;8.90;99.90
47168;DHT22;32931;47.778;17.806;2022-12-26T02:05:22;8.90;99.90
47168;DHT22;32931;47.778;17.806;2022-12-26T02:08:19;8.90;99.90
47168;DHT22;32931;47.778;17.806;2022-12-26T02:10:51;8.90;99.90
47168;DHT22;32931;47.778;17.806;2022-12-26T02:13:20;8.90;99.90
47168;DHT22;32931;47.778;17.806;2022-12-26T02:15:46;8.80;99.90
47168;DHT22;32931;47.778;17.806;2022-12-26T02:18:13;8.80;99.90
47168;DHT22;32931;47.778;17.806;2022-12-26T02:37:16;8.70;99.90
47168;DHT22;32931;47.778;17.806;2022-12-26T02:40:34;8.70;99.90
47168;DHT22;32931;47.778;17.806;2022-12-26T02:42:57;8.70;99.90
47168;DHT22;32931;47.778;17.806;2022-12-26T02:48:15;8.70;99.90
47168;DHT22;32931;47.778;17.806;2022-12-26T02:57:04;8.70;99.90
47168;DHT22;32931;47.778;17.806;2022-12-26T02:59:57;8.70;99.90
47168;DHT22;32931;47.778;17.806;2022-12-26T03:02:47;8.70;99.90
47168;DHT22;32931;47.778;17.806;2022-12-26T03:08:30;8.60;99.90
47168;DHT22;32931;47.778;17.806;2022-12-26T03:11:17;8.60;99.90
47168;DHT22;32931;47.778;17.806;2022-12-26T03:14:24;8.60;99.90
47168;DHT22;32931;47.778;17.806;2022-12-26T03:16:58;8.60;99.90
47168;DHT22;32931;47.778;17.806;2022-12-26T03:19:50;8.60;99.90
47168;DHT22;32931;47.778;17.806;2022-12-26T03:24:57;8.60;99.90
47168;DHT22;32931;47.778;17.806;2022-12-26T03:27:43;8.60;99.90
47168;DHT22;32931;47.778;17.806;2022-12-26T03:30:09;8.60;99.90
47168;DHT22;32931;47.778;17.806;2022-12-26T03:32:55;8.60;99.90
47168;DHT22;32931;47.778;17.806;2022-12-26T03:35:23;8.60;99.90
47168;DHT22;32931;47.778;17.806;2022-12-26T03:37:52;8.60;99.90
47168;DHT22;32931;47.778;17.806;2022-12-26T03:43:23;8.60;99.90
47168;DHT22;32931;47.778;17.806;2022-12-26T03:46:33;8.60;99.90
47168;DHT22;32931;47.778;17.806;2022-12-26T03:49:29;8.60;99.90
47168;DHT22;32931;47.778;17.806;2022-12-26T03:55:44;8.50;99.90
47168;DHT22;32931;47.778;17.806;2022-12-26T03:58:52;8.50;99.90
47168;DHT22;32931;47.778;17.806;2022-12-26T04:01:41;8.50;99.90
47168;DHT22;32931;47.778;17.806;2022-12-26T04:04:30;8.50;99.90
47168;DHT22;32931;47.778;17.806;2022-12-26T04:07:26;8.50;99.90
47168;DHT22;32931;47.778;17.806;2022-12-26T04:10:33;8.50;99.90
47168;DHT22;32931;47.778;17.806;2022-12-26T04:13:55;8.50;99.90
47168;DHT22;32931;47.778;17.806;2022-12-26T04:16:50;8.50;99.90
47168;DHT22;32931;47.778;17.806;2022-12-26T04:22:22;8.50;99.90
47168;DHT22;32931;47.778;17.806;2022-12-26T04:25:17;8.50;99.90
47168;DHT22;32931;47.778;17.806;2022-12-26T04:28:04;8.50;99.90
47168;DHT22;32931;47.778;17.806;2022-12-26T04:30:55;8.50;99.90
47168;DHT22;32931;47.778;17.806;2022-12-26T04:33:50;8.50;99.90
47168;DHT22;32931;47.778;17.806;2022-12-26T04:36:46;8.50;99.90
47168;DHT22;32931;47.778;17.806;2022-12-26T04:39:34;8.40;99.90
47168;DHT22;32931;47.778;17.806;2022-12-26T04:42:20;8.40;99.90
47168;DHT22;32931;47.778;17.806;2022-12-26T04:45:07;8.40;99.90
47168;DHT22;32931;47.778;17.806;2022-12-26T04:47:33;8.40;99.90
47168;DHT22;32931;47.778;17.806;2022-12-26T04:50:05;8.40;99.90
47168;DHT22;32931;47.778;17.806;2022-12-26T04:52:41;8.40;99.90
47168;DHT22;32931;47.778;17.806;2022-12-26T04:55:32;8.30;99.90
47168;DHT22;32931;47.778;17.806;2022-12-26T04:58:00;8.30;99.90
47168;DHT22;32931;47.778;17.806;2022-12-26T05:00:27;8.30;99.90
47168;DHT22;32931;47.778;17.806;2022-12-26T05:02:54;8.30;99.90
47168;DHT22;32931;47.778;17.806;2022-12-26T05:05:42;8.30;99.90
47168;DHT22;32931;47.778;17.806;2022-12-26T05:08:42;8.30;99.90
47168;DHT22;32931;47.778;17.806;2022-12-26T05:11:29;8.30;99.90
47168;DHT22;32931;47.778;17.806;2022-12-26T05:13:56;8.30;99.90
47168;DHT22;32931;47.778;17.806;2022-12-26T05:16:24;8.30;99.90
47168;DHT22;32931;47.778;17.806;2022-12-26T05:19:14;8.20;99.90
47168;DHT22;32931;47.778;17.806;2022-12-26T05:21:59;8.20;99.90
47168;DHT22;32931;47.778;17.806;2022-12-26T05:24:46;8.20;99.90
47168;DHT22;32931;47.778;17.806;2022-12-26T05:27:40;8.20;99.90
47168;DHT22;32931;47.778;17.806;2022-12-26T05:30:25;8.20;99.90
47168;DHT22;32931;47.778;17.806;2022-12-26T05:32:52;8.10;99.90
47168;DHT22;32931;47.778;17.806;2022-12-26T05:35:37;8.10;99.90
47168;DHT22;32931;47.778;17.806;2022-12-26T05:38:04;8.10;99.90
47168;DHT22;32931;47.778;17.806;2022-12-26T05:40:30;8.00;99.90
47168;DHT22;32931;47.778;17.806;2022-12-26T05:42:57;8.00;99.90
47168;DHT22;32931;47.778;17.806;2022-12-26T05:45:23;8.00;99.90
47168;DHT22;32931;47.778;17.806;2022-12-26T05:47:49;8.00;99.90
47168;DHT22;32931;47.778;17.806;2022-12-26T05:50:15;7.90;99.90
47168;DHT22;32931;47.778;17.806;2022-12-26T05:52:41;7.90;99.90
47168;DHT22;32931;47.778;17.806;2022-12-26T05:55:08;7.80;99.90
47168;DHT22;32931;47.778;17.806;2022-12-26T05:57:34;7.80;99.90
47168;DHT22;32931;47.778;17.806;2022-12-26T06:00:00;7.80;99.90
47168;DHT22;32931;47.778;17.806;2022-12-26T06:02:28;7.80;99.90
47168;DHT22;32931;47.778;17.806;2022-12-26T06:04:54;7.80;99.90
47168;DHT22;32931;47.778;17.806;2022-12-26T06:07:20;7.80;99.90
47168;DHT22;32931;47.778;17.806;2022-12-26T06:09:47;7.80;99.90
47168;DHT22;32931;47.778;17.806;2022-12-26T06:12:13;7.80;99.90
47168;DHT22;32931;47.778;17.806;2022-12-26T06:14:39;7.80;99.90
47168;DHT22;32931;47.778;17.806;2022-12-26T06:17:05;7.80;99.90
47168;DHT22;32931;47.778;17.806;2022-12-26T06:19:31;7.80;99.90
47168;DHT22;32931;47.778;17.806;2022-12-26T06:21:57;7.80;99.90
47168;DHT22;32931;47.778;17.806;2022-12-26T06:24:23;7.80;99.90
47168;DHT22;32931;47.778;17.806;2022-12-26T06:26:49;7.80;99.90
47168;DHT22;32931;47.778;17.806;2022-12-26T06:29:16;7.80;99.90
47168;DHT22;32931;47.778;17.806;2022-12-26T06:31:42;7.80;99.90
47168;DHT22;32931;47.778;17.806;2022-12-26T06:34:10;7.80;99.90
47168;DHT22;32931;47.778;17.806;2022-12-26T06:36:36;7.80;99.90
47168;DHT22;32931;47.778;17.806;2022-12-26T06:39:03;7.70;99.90
47168;DHT22;32931;47.778;17.806;2022-12-26T06:41:29;7.70;99.90
47168;DHT22;32931;47.778;17.806;2022-12-26T06:43:55;7.70;99.90
47168;DHT22;32931;47.778;17.806;2022-12-26T06:46:23;7.70;99.90
47168;DHT22;32931;47.778;17.806;2022-12-26T06:48:50;7.60;99.90
47168;DHT22;32931;47.778;17.806;2022-12-26T06:51:22;7.60;99.90
47168;DHT22;32931;47.778;17.806;2022-12-26T06:53:50;7.60;99.90
47168;DHT22;32931;47.778;17.806;2022-12-26T06:56:20;7.60;99.90
47168;DHT22;32931;47.778;17.806;2022-12-26T06:58:47;7.60;99.90
47168;DHT22;32931;47.778;17.806;2022-12-26T07:01:16;7.60;99.90
47168;DHT22;32931;47.778;17.806;2022-12-26T07:03:43;7.60;99.90
47168;DHT22;32931;47.778;17.806;2022-12-26T07:06:24;7.60;99.90
47168;DHT22;32931;47.778;17.806;2022-12-26T07:08:52;7.60;99.90
47168;DHT22;32931;47.778;17.806;2022-12-26T07:11:25;7.60;99.90
47168;DHT22;32931;47.778;17.806;2022-12-26T07:13:52;7.60;99.90
47168;DHT22;32931;47.778;17.806;2022-12-26T07:16:19;7.60;99.90
47168;DHT22;32931;47.778;17.806;2022-12-26T07:18:45;7.60;99.90
47168;DHT22;32931;47.778;17.806;2022-12-26T07:21:13;7.60;99.90
47168;DHT22;32931;47.778;17.806;2022-12-26T07:23:40;7.60;99.90
47168;DHT22;32931;47.778;17.806;2022-12-26T07:26:07;7.60;99.90
47168;DHT22;32931;47.778;17.806;2022-12-26T07:28:33;7.60;99.90
47168;DHT22;32931;47.778;17.806;2022-12-26T07:31:00;7.60;99.90
47168;DHT22;32931;47.778;17.806;2022-12-26T07:33:26;7.60;99.90
47168;DHT22;32931;47.778;17.806;2022-12-26T07:35:53;7.60;99.90
47168;DHT22;32931;47.778;17.806;2022-12-26T07:38:19;7.60;99.90
47168;DHT22;32931;47.778;17.806;2022-12-26T07:40:45;7.60;99.90
47168;DHT22;32931;47.778;17.806;2022-12-26T07:43:11;7.60;99.90
47168;DHT22;32931;47.778;17.806;2022-12-26T07:45:38;7.60;99.90
47168;DHT22;32931;47.778;17.806;2022-12-26T07:48:04;7.60;99.90
47168;DHT22;32931;47.778;17.806;2022-12-26T07:50:30;7.70;99.90
47168;DHT22;32931;47.778;17.806;2022-12-26T07:52:58;7.70;99.90
47168;DHT22;32931;47.778;17.806;2022-12-26T07:55:24;7.80;99.90
47168;DHT22;32931;47.778;17.806;2022-12-26T07:57:51;7.80;99.90
47168;DHT22;32931;47.778;17.806;2022-12-26T08:00:18;7.80;99.90
47168;DHT22;32931;47.778;17.806;2022-12-26T08:02:49;7.90;99.90
47168;DHT22;32931;47.778;17.806;2022-12-26T08:05:18;7.90;99.90
47168;DHT22;32931;47.778;17.806;2022-12-26T08:07:47;8.00;99.90
47168;DHT22;32931;47.778;17.806;2022-12-26T08:10:14;8.10;99.90
47168;DHT22;32931;47.778;17.806;2022-12-26T08:12:41;8.10;99.90
47168;DHT22;32931;47.778;17.806;2022-12-26T08:15:07;8.20;99.90
47168;DHT22;32931;47.778;17.806;2022-12-26T08:17:34;8.20;99.90
47168;DHT22;32931;47.778;17.806;2022-12-26T08:20:01;8.30;99.90
47168;DHT22;32931;47.778;17.806;2022-12-26T08:22:27;8.30;99.90
47168;DHT22;32931;47.778;17.806;2022-12-26T08:24:53;8.40;99.90
47168;DHT22;32931;47.778;17.806;2022-12-26T08:27:19;8.40;99.90
47168;DHT22;32931;47.778;17.806;2022-12-26T08:29:46;8.50;99.90
47168;DHT22;32931;47.778;17.806;2022-12-26T08:32:12;8.60;99.90
47168;DHT22;32931;47.778;17.806;2022-12-26T08:34:38;8.60;99.90
47168;DHT22;32931;47.778;17.806;2022-12-26T08:37:05;8.70;99.90
47168;DHT22;32931;47.778;17.806;2022-12-26T08:39:31;8.80;99.90
47168;DHT22;32931;47.778;17.806;2022-12-26T08:41:57;8.90;99.90
47168;DHT22;32931;47.778;17.806;2022-12-26T08:44:23;8.90;99.90
47168;DHT22;32931;47.778;17.806;2022-12-26T08:46:49;9.00;99.90
47168;DHT22;32931;47.778;17.806;2022-12-26T08:49:15;9.00;99.90
47168;DHT22;32931;47.778;17.806;2022-12-26T08:51:42;9.10;99.90
47168;DHT22;32931;47.778;17.806;2022-12-26T08:54:08;9.10;99.90
47168;DHT22;32931;47.778;17.806;2022-12-26T08:56:34;9.20;99.90
47168;DHT22;32931;47.778;17.806;2022-12-26T08:59:00;9.20;99.90
47168;DHT22;32931;47.778;17.806;2022-12-26T09:01:29;9.30;99.90
47168;DHT22;32931;47.778;17.806;2022-12-26T09:03:57;9.40;99.90
47168;DHT22;32931;47.778;17.806;2022-12-26T09:06:25;9.40;99.90
47168;DHT22;32931;47.778;17.806;2022-12-26T09:08:51;9.50;99.90
47168;DHT22;32931;47.778;17.806;2022-12-26T09:11:21;9.50;99.90
47168;DHT22;32931;47.778;17.806;2022-12-26T09:13:47;9.60;99.90
47168;DHT22;32931;47.778;17.806;2022-12-26T09:16:16;9.70;99.90
47168;DHT22;32931;47.778;17.806;2022-12-26T09:18:43;9.70;99.90
47168;DHT22;32931;47.778;17.806;2022-12-26T09:21:11;9.70;99.90
47168;DHT22;32931;47.778;17.806;2022-12-26T09:23:38;9.80;99.90
47168;DHT22;32931;47.778;17.806;2022-12-26T09:26:13;9.90;99.90
47168;DHT22;32931;47.778;17.806;2022-12-26T09:28:40;9.90;99.90
47168;DHT22;32931;47.778;17.806;2022-12-26T09:31:10;9.90;99.90
47168;DHT22;32931;47.778;17.806;2022-12-26T09:33:36;10.00;99.90
47168;DHT22;32931;47.778;17.806;2022-12-26T09:36:05;10.00;99.90
47168;DHT22;32931;47.778;17.806;2022-12-26T09:38:31;10.00;99.90
47168;DHT22;32931;47.778;17.806;2022-12-26T09:41:29;10.10;99.90
47168;DHT22;32931;47.778;17.806;2022-12-26T09:44:06;10.10;99.90
47168;DHT22;32931;47.778;17.806;2022-12-26T09:46:46;10.20;99.90
47168;DHT22;32931;47.778;17.806;2022-12-26T09:49:21;10.20;99.90
47168;DHT22;32931;47.778;17.806;2022-12-26T09:51:56;10.20;99.90
47168;DHT22;32931;47.778;17.806;2022-12-26T09:54:33;10.20;99.90
47168;DHT22;32931;47.778;17.806;2022-12-26T09:57:03;10.30;99.90
47168;DHT22;32931;47.778;17.806;2022-12-26T09:59:51;10.30;99.90
47168;DHT22;32931;47.778;17.806;2022-12-26T10:02:21;10.30;99.90
47168;DHT22;32931;47.778;17.806;2022-12-26T10:04:48;10.30;99.90
47168;DHT22;32931;47.778;17.806;2022-12-26T10:07:30;10.30;99.90
47168;DHT22;32931;47.778;17.806;2022-12-26T10:10:13;10.40;99.90
47168;DHT22;32931;47.778;17.806;2022-12-26T10:13:09;10.50;99.90
47168;DHT22;32931;47.778;17.806;2022-12-26T10:15:53;10.50;99.90
47168;DHT22;32931;47.778;17.806;2022-12-26T10:23:47;10.70;99.90
47168;DHT22;32931;47.778;17.806;2022-12-26T10:26:34;10.80;99.90
47168;DHT22;32931;47.778;17.806;2022-12-26T10:37:12;11.10;99.90
47168;DHT22;32931;47.778;17.806;2022-12-26T10:42:42;11.20;99.90
47168;DHT22;32931;47.778;17.806;2022-12-26T10:48:38;11.40;99.90
47168;DHT22;32931;47.778;17.806;2022-12-26T10:51:05;11.40;99.90
47168;DHT22;32931;47.778;17.806;2022-12-26T10:53:32;11.50;99.90
47168;DHT22;32931;47.778;17.806;2022-12-26T10:55:59;11.60;99.90
47168;DHT22;32931;47.778;17.806;2022-12-26T10:58:31;11.60;99.90
47168;DHT22;32931;47.778;17.806;2022-12-26T11:04:19;11.70;99.90
47168;DHT22;32931;47.778;17.806;2022-12-26T11:06:43;11.80;99.90
47168;DHT22;32931;47.778;17.806;2022-12-26T11:09:33;11.90;99.90
47168;DHT22;32931;47.778;17.806;2022-12-26T11:12:01;11.90;99.90
47168;DHT22;32931;47.778;17.806;2022-12-26T11:14:39;12.00;99.90
47168;DHT22;32931;47.778;17.806;2022-12-26T11:17:25;12.00;99.90
47168;DHT22;32931;47.778;17.806;2022-12-26T11:22:45;12.10;99.90
47168;DHT22;32931;47.778;17.806;2022-12-26T11:25:19;12.20;99.90
47168;DHT22;32931;47.778;17.806;2022-12-26T11:27:48;12.20;99.90
47168;DHT22;32931;47.778;17.806;2022-12-26T11:30:33;12.30;99.90
47168;DHT22;32931;47.778;17.806;2022-12-26T11:33:20;12.30;99.90
47168;DHT22;32931;47.778;17.806;2022-12-26T11:38:22;12.40;99.90
47168;DHT22;32931;47.778;17.806;2022-12-26T11:41:03;12.40;99.90
47168;DHT22;32931;47.778;17.806;2022-12-26T11:43:49;12.40;99.90
47168;DHT22;32931;47.778;17.806;2022-12-26T11:46:17;12.40;99.90
47168;DHT22;32931;47.778;17.806;2022-12-26T11:48:48;12.50;99.90
47168;DHT22;32931;47.778;17.806;2022-12-26T11:51:15;12.50;99.90
47168;DHT22;32931;47.778;17.806;2022-12-26T11:53:41;12.50;99.90
47168;DHT22;32931;47.778;17.806;2022-12-26T11:56:08;12.50;99.90
47168;DHT22;32931;47.778;17.806;2022-12-26T11:58:35;12.60;99.90
47168;DHT22;32931;47.778;17.806;2022-12-26T12:09:17;12.70;99.90
47168;DHT22;32931;47.778;17.806;2022-12-26T12:14:50;12.60;99.90
47168;DHT22;32931;47.778;17.806;2022-12-26T12:20:22;12.70;99.90
47168;DHT22;32931;47.778;17.806;2022-12-26T12:23:56;12.70;99.90
47168;DHT22;32931;47.778;17.806;2022-12-26T12:37:31;12.70;99.90
47168;DHT22;32931;47.778;17.806;2022-12-26T12:43:26;12.70;99.90
47168;DHT22;32931;47.778;17.806;2022-12-26T12:51:26;12.70;99.90
47168;DHT22;32931;47.778;17.806;2022-12-26T12:56:48;12.70;99.90
47168;DHT22;32931;47.778;17.806;2022-12-26T13:02:46;12.70;99.90
47168;DHT22;32931;47.778;17.806;2022-12-26T13:08:28;12.60;99.90
47168;DHT22;32931;47.778;17.806;2022-12-26T13:14:01;12.60;99.90
47168;DHT22;32931;47.778;17.806;2022-12-26T13:16:38;12.70;99.90
47168;DHT22;32931;47.778;17.806;2022-12-26T13:21:43;12.70;99.90
47168;DHT22;32931;47.778;17.806;2022-12-26T13:24:45;12.70;99.90
47168;DHT22;32931;47.778;17.806;2022-12-26T13:29:45;12.70;99.90
47168;DHT22;32931;47.778;17.806;2022-12-26T13:32:31;12.70;99.90
47168;DHT22;32931;47.778;17.806;2022-12-26T13:34:59;12.80;99.90
47168;DHT22;32931;47.778;17.806;2022-12-26T13:40:17;12.70;99.90
47168;DHT22;32931;47.778;17.806;2022-12-26T13:45:41;12.70;99.90
47168;DHT22;32931;47.778;17.806;2022-12-26T13:53:37;12.70;99.90
47168;DHT22;32931;47.778;17.806;2022-12-26T13:59:16;12.60;99.90
47168;DHT22;32931;47.778;17.806;2022-12-26T14:02:01;12.60;99.90
47168;DHT22;32931;47.778;17.806;2022-12-26T14:05:29;12.50;99.90
47168;DHT22;32931;47.778;17.806;2022-12-26T14:16:18;12.30;99.90
47168;DHT22;32931;47.778;17.806;2022-12-26T14:27:22;12.10;99.90
47168;DHT22;32931;47.778;17.806;2022-12-26T14:35:25;11.90;99.90
47168;DHT22;32931;47.778;17.806;2022-12-26T14:41:09;11.70;99.90
47168;DHT22;32931;47.778;17.806;2022-12-26T14:43:56;11.60;99.90
47168;DHT22;32931;47.778;17.806;2022-12-26T14:48:59;11.50;99.90
47168;DHT22;32931;47.778;17.806;2022-12-26T14:51:31;11.40;99.90
47168;DHT22;32931;47.778;17.806;2022-12-26T14:54:17;11.30;99.90
47168;DHT22;32931;47.778;17.806;2022-12-26T14:56:56;11.30;99.90
47168;DHT22;32931;47.778;17.806;2022-12-26T14:59:32;11.20;99.90
47168;DHT22;32931;47.778;17.806;2022-12-26T15:05:02;11.00;99.90
47168;DHT22;32931;47.778;17.806;2022-12-26T15:32:55;10.30;99.90
47168;DHT22;32931;47.778;17.806;2022-12-26T15:35:45;10.30;99.90
47168;DHT22;32931;47.778;17.806;2022-12-26T15:38:22;10.30;99.90
47168;DHT22;32931;47.778;17.806;2022-12-26T15:43:38;10.20;99.90
47168;DHT22;32931;47.778;17.806;2022-12-26T15:46:19;10.10;99.90
47168;DHT22;32931;47.778;17.806;2022-12-26T15:57:52;10.00;99.90
47168;DHT22;32931;47.778;17.806;2022-12-26T16:00:25;10.00;99.90
47168;DHT22;32931;47.778;17.806;2022-12-26T16:05:36;9.90;99.90
47168;DHT22;32931;47.778;17.806;2022-12-26T16:11:07;9.80;99.90
47168;DHT22;32931;47.778;17.806;2022-12-26T16:13:34;9.70;99.90
47168;DHT22;32931;47.778;17.806;2022-12-26T16:16:00;9.70;99.90
47168;DHT22;32931;47.778;17.806;2022-12-26T16:18:29;9.60;99.90
47168;DHT22;32931;47.778;17.806;2022-12-26T16:21:02;9.60;99.90
47168;DHT22;32931;47.778;17.806;2022-12-26T16:23:50;9.60;99.90
47168;DHT22;32931;47.778;17.806;2022-12-26T16:26:20;9.50;99.90
47168;DHT22;32931;47.778;17.806;2022-12-26T16:28:48;9.50;99.90
47168;DHT22;32931;47.778;17.806;2022-12-26T16:31:32;9.50;99.90
47168;DHT22;32931;47.778;17.806;2022-12-26T16:33:59;9.40;99.90
47168;DHT22;32931;47.778;17.806;2022-12-26T16:36:27;9.40;99.90
47168;DHT22;32931;47.778;17.806;2022-12-26T16:38:54;9.30;99.90
47168;DHT22;32931;47.778;17.806;2022-12-26T16:41:28;9.30;99.90
47168;DHT22;32931;47.778;17.806;2022-12-26T16:43:56;9.20;99.90
47168;DHT22;32931;47.778;17.806;2022-12-26T16:46:26;9.10;99.90
47168;DHT22;32931;47.778;17.806;2022-12-26T16:48:56;9.10;99.90
47168;DHT22;32931;47.778;17.806;2022-12-26T16:54:37;9.00;99.90
47168;DHT22;32931;47.778;17.806;2022-12-26T16:57:18;8.90;99.90
47168;DHT22;32931;47.778;17.806;2022-12-26T17:02:28;8.90;99.90
47168;DHT22;32931;47.778;17.806;2022-12-26T17:05:02;8.90;99.90
47168;DHT22;32931;47.778;17.806;2022-12-26T17:07:30;8.90;99.90
47168;DHT22;32931;47.778;17.806;2022-12-26T17:09:58;8.80;99.90
47168;DHT22;32931;47.778;17.806;2022-12-26T17:12:27;8.80;99.90
47168;DHT22;32931;47.778;17.806;2022-12-26T17:14:56;8.80;99.90
47168;DHT22;32931;47.778;17.806;2022-12-26T17:19:52;8.80;99.90
47168;DHT22;32931;47.778;17.806;2022-12-26T17:22:30;8.80;99.90
47168;DHT22;32931;47.778;17.806;2022-12-26T17:25:28;8.80;99.90
47168;DHT22;32931;47.778;17.806;2022-12-26T17:30:39;8.80;99.90
47168;DHT22;32931;47.778;17.806;2022-12-26T17:33:19;8.70;99.90
47168;DHT22;32931;47.778;17.806;2022-12-26T17:35:55;8.70;99.90
47168;DHT22;32931;47.778;17.806;2022-12-26T17:38:25;8.60;99.90
47168;DHT22;32931;47.778;17.806;2022-12-26T17:40:53;8.70;99.90
47168;DHT22;32931;47.778;17.806;2022-12-26T17:43:31;8.70;99.90
47168;DHT22;32931;47.778;17.806;2022-12-26T17:45:58;8.70;99.90
47168;DHT22;32931;47.778;17.806;2022-12-26T17:48:24;8.70;99.90
47168;DHT22;32931;47.778;17.806;2022-12-26T17:50:58;8.70;99.90
47168;DHT22;32931;47.778;17.806;2022-12-26T17:58:29;8.70;99.90
47168;DHT22;32931;47.778;17.806;2022-12-26T18:00:55;8.70;99.90
47168;DHT22;32931;47.778;17.806;2022-12-26T18:03:22;8.70;99.90
47168;DHT22;32931;47.778;17.806;2022-12-26T18:05:48;8.70;99.90
47168;DHT22;32931;47.778;17.806;2022-12-26T18:08:33;8.70;99.90
47168;DHT22;32931;47.778;17.806;2022-12-26T18:11:01;8.70;99.90
47168;DHT22;32931;47.778;17.806;2022-12-26T18:13:27;8.70;99.90
47168;DHT22;32931;47.778;17.806;2022-12-26T18:15:54;8.60;99.90
47168;DHT22;32931;47.778;17.806;2022-12-26T18:20:57;8.70;99.90
47168;DHT22;32931;47.778;17.806;2022-12-26T18:23:24;8.70;99.90
47168;DHT22;32931;47.778;17.806;2022-12-26T18:25:50;8.70;99.90
47168;DHT22;32931;47.778;17.806;2022-12-26T18:28:18;8.80;99.90
47168;DHT22;32931;47.778;17.806;2022-12-26T18:30:44;8.70;99.90
47168;DHT22;32931;47.778;17.806;2022-12-26T18:33:11;8.70;99.90
47168;DHT22;32931;47.778;17.806;2022-12-26T18:35:39;8.70;99.90
47168;DHT22;32931;47.778;17.806;2022-12-26T18:38:05;8.70;99.90
47168;DHT22;32931;47.778;17.806;2022-12-26T18:43:01;8.50;99.90
47168;DHT22;32931;47.778;17.806;2022-12-26T18:45:28;8.40;99.90
47168;DHT22;32931;47.778;17.806;2022-12-26T18:47:55;8.40;99.90
47168;DHT22;32931;47.778;17.806;2022-12-26T18:50:22;8.30;99.90
47168;DHT22;32931;47.778;17.806;2022-12-26T18:52:48;8.30;99.90
47168;DHT22;32931;47.778;17.806;2022-12-26T18:55:15;8.30;99.90
47168;DHT22;32931;47.778;17.806;2022-12-26T18:57:41;8.40;99.90
47168;DHT22;32931;47.778;17.806;2022-12-26T19:00:09;8.40;99.90
47168;DHT22;32931;47.778;17.806;2022-12-26T19:02:37;8.50;99.90
47168;DHT22;32931;47.778;17.806;2022-12-26T19:05:03;8.50;99.90
47168;DHT22;32931;47.778;17.806;2022-12-26T19:07:30;8.60;99.90
47168;DHT22;32931;47.778;17.806;2022-12-26T19:09:56;8.60;99.90
47168;DHT22;32931;47.778;17.806;2022-12-26T19:12:24;8.60;99.90
47168;DHT22;32931;47.778;17.806;2022-12-26T19:14:50;8.60;99.90
47168;DHT22;32931;47.778;17.806;2022-12-26T19:17:17;8.60;99.90
47168;DHT22;32931;47.778;17.806;2022-12-26T19:19:43;8.70;99.90
47168;DHT22;32931;47.778;17.806;2022-12-26T19:22:10;8.70;99.90
47168;DHT22;32931;47.778;17.806;2022-12-26T19:24:36;8.70;99.90
47168;DHT22;32931;47.778;17.806;2022-12-26T19:27:02;8.70;99.90
47168;DHT22;32931;47.778;17.806;2022-12-26T19:29:29;8.80;99.90
47168;DHT22;32931;47.778;17.806;2022-12-26T19:31:55;8.80;99.90
47168;DHT22;32931;47.778;17.806;2022-12-26T19:34:22;8.80;99.90
47168;DHT22;32931;47.778;17.806;2022-12-26T19:36:48;8.80;99.90
47168;DHT22;32931;47.778;17.806;2022-12-26T19:39:15;8.80;99.90
47168;DHT22;32931;47.778;17.806;2022-12-26T19:41:41;8.80;99.90
47168;DHT22;32931;47.778;17.806;2022-12-26T19:44:08;8.80;99.90
47168;DHT22;32931;47.778;17.806;2022-12-26T19:46:35;8.80;99.90
47168;DHT22;32931;47.778;17.806;2022-12-26T19:49:01;8.80;99.90
47168;DHT22;32931;47.778;17.806;2022-12-26T19:51:27;8.80;99.90
47168;DHT22;32931;47.778;17.806;2022-12-26T19:53:53;8.70;99.90
47168;DHT22;32931;47.778;17.806;2022-12-26T19:56:22;8.70;99.90